sensor_id;sensor_type;location;lat;lon;timestamp;pressure;altitude;pressure_sealevel;temperature;humidity
73821;BME280;62150;43.582;1.456;2023-02-28T06:12:57;100506.47;;;1.09;100.00
73821;BME280;62150;43.582;1.456;2023-02-28T06:15:26;100506.50;;;1.18;100.00
73821;BME280;62150;43.582;1.456;2023-02-28T06:17:54;100508.09;;;0.96;100.00
73821;BME280;62150;43.582;1.456;2023-02-28T06:20:23;100513.97;;;0.91;100.00
73821;BME280;62150;43.582;1.456;2023-02-28T06:22:50;100511.44;;;0.91;100.00
73821;BME280;62150;43.582;1.456;2023-02-28T06:25:20;100503.72;;;0.74;100.00
73821;BME280;62150;43.582;1.456;2023-02-28T06:27:48;100508.94;;;0.97;100.00
73821;BME280;62150;43.582;1.456;2023-02-28T06:30:17;100509.91;;;1.20;100.00
73821;BME280;62150;43.582;1.456;2023-02-28T06:32:49;100512.38;;;1.13;100.00
73821;BME280;62150;43.582;1.456;2023-02-28T06:35:18;100521.63;;;1.00;100.00
73821;BME280;62150;43.582;1.456;2023-02-28T06:37:46;100519.97;;;1.14;100.00
73821;BME280;62150;43.582;1.456;2023-02-28T06:40:14;100519.00;;;0.89;100.00
73821;BME280;62150;43.582;1.456;2023-02-28T06:42:42;100515.69;;;1.04;100.00
73821;BME280;62150;43.582;1.456;2023-02-28T06:45:10;100517.41;;;1.05;100.00
73821;BME280;62150;43.582;1.456;2023-02-28T06:47:41;100519.91;;;0.99;100.00
73821;BME280;62150;43.582;1.456;2023-02-28T06:50:11;100516.66;;;1.21;100.00
73821;BME280;62150;43.582;1.456;2023-02-28T06:52:39;100524.28;;;1.30;100.00
73821;BME280;62150;43.582;1.456;2023-02-28T06:55:08;100526.00;;;1.41;100.00
73821;BME280;62150;43.582;1.456;2023-02-28T06:57:36;100525.19;;;1.46;100.00
73821;BME280;62150;43.582;1.456;2023-02-28T07:00:07;100529.38;;;1.40;100.00
73821;BME280;62150;43.582;1.456;2023-02-28T07:02:35;100525.19;;;1.39;100.00
73821;BME280;62150;43.582;1.456;2023-02-28T07:05:05;100532.88;;;1.66;100.00
73821;BME280;62150;43.582;1.456;2023-02-28T07:07:33;100532.75;;;1.36;100.00
73821;BME280;62150;43.582;1.456;2023-02-28T07:10:02;100536.22;;;1.56;100.00
73821;BME280;62150;43.582;1.456;2023-02-28T07:12:30;100529.50;;;1.65;100.00
73821;BME280;62150;43.582;1.456;2023-02-28T07:14:57;100534.56;;;1.65;100.00
73821;BME280;62150;43.582;1.456;2023-02-28T07:17:25;100532.84;;;1.61;100.00
73821;BME280;62150;43.582;1.456;2023-02-28T07:19:52;100538.75;;;1.57;100.00
73821;BME280;62150;43.582;1.456;2023-02-28T07:22:21;100536.19;;;1.54;100.00
73821;BME280;62150;43.582;1.456;2023-02-28T07:24:49;100535.34;;;1.55;100.00
73821;BME280;62150;43.582;1.456;2023-02-28T07:27:16;100541.25;;;1.54;100.00
73821;BME280;62150;43.582;1.456;2023-02-28T07:29:49;100539.50;;;1.43;100.00
73821;BME280;62150;43.582;1.456;2023-02-28T07:32:17;100544.66;;;1.61;100.00
73821;BME280;62150;43.582;1.456;2023-02-28T07:34:45;100544.59;;;1.46;100.00
73821;BME280;62150;43.582;1.456;2023-02-28T07:37:13;100548.91;;;1.62;100.00
73821;BME280;62150;43.582;1.456;2023-02-28T07:39:42;100554.75;;;1.49;100.00
73821;BME280;62150;43.582;1.456;2023-02-28T07:42:09;100552.38;;;1.94;100.00
73821;BME280;62150;43.582;1.456;2023-02-28T07:44:38;100546.47;;;1.94;100.00
73821;BME280;62150;43.582;1.456;2023-02-28T07:47:07;100550.69;;;1.95;100.00
73821;BME280;62150;43.582;1.456;2023-02-28T07:49:38;100546.47;;;2.01;100.00
73821;BME280;62150;43.582;1.456;2023-02-28T07:52:06;100557.44;;;2.08;100.00
73821;BME280;62150;43.582;1.456;2023-02-28T07:54:34;100552.41;;;2.04;100.00
73821;BME280;62150;43.582;1.456;2023-02-28T07:57:03;100561.69;;;2.01;100.00
73821;BME280;62150;43.582;1.456;2023-02-28T07:59:30;100563.38;;;2.03;100.00
73821;BME280;62150;43.582;1.456;2023-02-28T08:01:58;100557.47;;;2.07;100.00
73821;BME280;62150;43.582;1.456;2023-02-28T08:04:26;100564.25;;;2.20;100.00
73821;BME280;62150;43.582;1.456;2023-02-28T08:06:53;100560.84;;;2.18;100.00
73821;BME280;62150;43.582;1.456;2023-02-28T08:09:22;100565.06;;;2.13;100.00
73821;BME280;62150;43.582;1.456;2023-02-28T08:11:50;100566.75;;;2.11;100.00
73821;BME280;62150;43.582;1.456;2023-02-28T08:14:18;100562.59;;;2.31;100.00
73821;BME280;62150;43.582;1.456;2023-02-28T08:16:46;100571.00;;;2.21;100.00
73821;BME280;62150;43.582;1.456;2023-02-28T08:19:13;100569.34;;;2.56;100.00
73821;BME280;62150;43.582;1.456;2023-02-28T08:21:41;100570.22;;;2.64;100.00
73821;BME280;62150;43.582;1.456;2023-02-28T08:24:08;100566.81;;;2.56;100.00
73821;BME280;62150;43.582;1.456;2023-02-28T08:26:36;100561.72;;;2.30;100.00
73821;BME280;62150;43.582;1.456;2023-02-28T08:29:03;100563.44;;;2.59;100.00
73821;BME280;62150;43.582;1.456;2023-02-28T08:31:32;100565.97;;;2.79;100.00
73821;BME280;62150;43.582;1.456;2023-02-28T08:34:04;100564.28;;;2.72;100.00
73821;BME280;62150;43.582;1.456;2023-02-28T08:36:31;100565.97;;;2.69;100.00
73821;BME280;62150;43.582;1.456;2023-02-28T08:38:59;100569.28;;;3.28;100.00
73821;BME280;62150;43.582;1.456;2023-02-28T08:41:26;100567.66;;;2.98;100.00
73821;BME280;62150;43.582;1.456;2023-02-28T08:43:54;100564.25;;;3.02;100.00
73821;BME280;62150;43.582;1.456;2023-02-28T08:46:22;100565.09;;;3.10;100.00
73821;BME280;62150;43.582;1.456;2023-02-28T08:48:54;100585.38;;;3.21;100.00
73821;BME280;62150;43.582;1.456;2023-02-28T08:51:22;100584.38;;;3.72;100.00
73821;BME280;62150;43.582;1.456;2023-02-28T08:53:53;100587.75;;;3.76;100.00
73821;BME280;62150;43.582;1.456;2023-02-28T08:56:21;100593.72;;;3.56;100.00
73821;BME280;62150;43.582;1.456;2023-02-28T08:58:50;100584.31;;;3.83;100.00
73821;BME280;62150;43.582;1.456;2023-02-28T09:01:19;100590.34;;;3.60;100.00
73821;BME280;62150;43.582;1.456;2023-02-28T09:03:49;100593.66;;;3.79;100.00
73821;BME280;62150;43.582;1.456;2023-02-28T09:06:20;100590.16;;;4.03;100.00
73821;BME280;62150;43.582;1.456;2023-02-28T09:08:48;100592.81;;;3.79;100.00
73821;BME280;62150;43.582;1.456;2023-02-28T09:11:16;100584.38;;;3.74;100.00
73821;BME280;62150;43.582;1.456;2023-02-28T09:13:45;100580.91;;;3.87;100.00
73821;BME280;62150;43.582;1.456;2023-02-28T09:16:14;100584.19;;;4.09;100.00
73821;BME280;62150;43.582;1.456;2023-02-28T09:18:43;100593.72;;;3.62;100.00
73821;BME280;62150;43.582;1.456;2023-02-28T09:21:13;100589.31;;;3.99;100.00
73821;BME280;62150;43.582;1.456;2023-02-28T09:23:43;100586.97;;;3.52;100.00
73821;BME280;62150;43.582;1.456;2023-02-28T09:26:14;100591.00;;;4.03;100.00
73821;BME280;62150;43.582;1.456;2023-02-28T09:28:42;100599.50;;;3.95;100.00
73821;BME280;62150;43.582;1.456;2023-02-28T09:31:13;100599.50;;;3.95;100.00
73821;BME280;62150;43.582;1.456;2023-02-28T09:33:41;100596.81;;;4.24;100.00
73821;BME280;62150;43.582;1.456;2023-02-28T09:36:09;100598.44;;;4.35;100.00
73821;BME280;62150;43.582;1.456;2023-02-28T09:38:36;100606.91;;;4.36;100.00
73821;BME280;62150;43.582;1.456;2023-02-28T09:41:13;100600.38;;;3.88;100.00
73821;BME280;62150;43.582;1.456;2023-02-28T09:43:45;100614.69;;;4.15;100.00
73821;BME280;62150;43.582;1.456;2023-02-28T09:46:28;100605.31;;;4.18;100.00
73821;BME280;62150;43.582;1.456;2023-02-28T09:48:57;100605.22;;;4.38;100.00
73821;BME280;62150;43.582;1.456;2023-02-28T09:51:33;100603.69;;;4.07;100.00
73821;BME280;62150;43.582;1.456;2023-02-28T09:54:03;100601.69;;;4.53;100.00
73821;BME280;62150;43.582;1.456;2023-02-28T09:56:36;100601.53;;;4.77;100.00
73821;BME280;62150;43.582;1.456;2023-02-28T09:59:10;100618.53;;;4.74;100.00
73821;BME280;62150;43.582;1.456;2023-02-28T10:01:45;100613.03;;;5.19;98.16
73821;BME280;62150;43.582;1.456;2023-02-28T10:04:33;100612.38;;;4.99;98.03
73821;BME280;62150;43.582;1.456;2023-02-28T10:07:11;100599.41;;;5.22;99.00
73821;BME280;62150;43.582;1.456;2023-02-28T10:09:47;100606.03;;;5.41;99.18
73821;BME280;62150;43.582;1.456;2023-02-28T10:12:17;100588.78;;;4.82;100.00
73821;BME280;62150;43.582;1.456;2023-02-28T10:14:49;100598.78;;;4.98;99.19
73821;BME280;62150;43.582;1.456;2023-02-28T10:17:21;100594.56;;;4.94;98.45
73821;BME280;62150;43.582;1.456;2023-02-28T10:19:59;100595.34;;;5.05;96.80
73821;BME280;62150;43.582;1.456;2023-02-28T10:22:38;100604.63;;;5.10;95.63
73821;BME280;62150;43.582;1.456;2023-02-28T10:25:18;100599.56;;;5.08;95.36
73821;BME280;62150;43.582;1.456;2023-02-28T10:27:48;100612.72;;;5.50;91.14
73821;BME280;62150;43.582;1.456;2023-02-28T10:30:16;100617.97;;;5.36;93.43
73821;BME280;62150;43.582;1.456;2023-02-28T10:32:49;100620.50;;;5.36;93.07
73821;BME280;62150;43.582;1.456;2023-02-28T10:35:20;100615.94;;;5.64;91.81
73821;BME280;62150;43.582;1.456;2023-02-28T10:37:50;100611.00;;;5.53;92.63
73821;BME280;62150;43.582;1.456;2023-02-28T10:40:31;100618.72;;;5.44;91.73
73821;BME280;62150;43.582;1.456;2023-02-28T10:43:03;100607.28;;;5.79;90.71
73821;BME280;62150;43.582;1.456;2023-02-28T10:45:32;100608.34;;;5.61;90.72
73821;BME280;62150;43.582;1.456;2023-02-28T10:48:03;100613.31;;;5.71;89.16
73821;BME280;62150;43.582;1.456;2023-02-28T10:50:39;100598.03;;;5.71;88.41
73821;BME280;62150;43.582;1.456;2023-02-28T10:53:25;100598.00;;;5.73;86.01
73821;BME280;62150;43.582;1.456;2023-02-28T10:56:00;100602.63;;;5.42;87.10
73821;BME280;62150;43.582;1.456;2023-02-28T10:58:31;100606.91;;;5.38;86.76
73821;BME280;62150;43.582;1.456;2023-02-28T11:00:59;100606.66;;;5.60;84.91
73821;BME280;62150;43.582;1.456;2023-02-28T11:03:32;100606.13;;;5.29;88.33
73821;BME280;62150;43.582;1.456;2023-02-28T11:06:05;100620.16;;;5.68;88.54
73821;BME280;62150;43.582;1.456;2023-02-28T11:08:34;100610.06;;;5.59;87.85
73821;BME280;62150;43.582;1.456;2023-02-28T11:11:10;100609.41;;;5.43;88.87
73821;BME280;62150;43.582;1.456;2023-02-28T11:13:40;100607.41;;;5.68;90.14
73821;BME280;62150;43.582;1.456;2023-02-28T11:16:10;100608.72;;;6.01;88.35
73821;BME280;62150;43.582;1.456;2023-02-28T11:18:42;100609.09;;;5.70;90.69
73821;BME280;62150;43.582;1.456;2023-02-28T11:21:17;100609.00;;;5.78;91.02
73821;BME280;62150;43.582;1.456;2023-02-28T11:23:45;100606.28;;;5.93;89.55
73821;BME280;62150;43.582;1.456;2023-02-28T11:26:14;100603.84;;;5.84;88.62
73821;BME280;62150;43.582;1.456;2023-02-28T11:28:44;100603.75;;;5.92;87.49
73821;BME280;62150;43.582;1.456;2023-02-28T11:31:17;100601.09;;;5.99;89.68
73821;BME280;62150;43.582;1.456;2023-02-28T11:33:47;100604.44;;;6.04;88.03
73821;BME280;62150;43.582;1.456;2023-02-28T11:36:26;100601.81;;;6.11;84.79
73821;BME280;62150;43.582;1.456;2023-02-28T11:38:56;100599.41;;;5.98;85.55
73821;BME280;62150;43.582;1.456;2023-02-28T11:41:45;100599.09;;;6.23;83.59
73821;BME280;62150;43.582;1.456;2023-02-28T11:44:31;100597.06;;;5.82;84.74
73821;BME280;62150;43.582;1.456;2023-02-28T11:47:06;100592.28;;;6.23;77.46
73821;BME280;62150;43.582;1.456;2023-02-28T11:49:45;100577.22;;;6.07;80.71
73821;BME280;62150;43.582;1.456;2023-02-28T11:52:24;100571.59;;;5.79;78.87
73821;BME280;62150;43.582;1.456;2023-02-28T11:55:11;100565.47;;;5.95;76.43
73821;BME280;62150;43.582;1.456;2023-02-28T11:57:59;100564.06;;;5.69;73.28
73821;BME280;62150;43.582;1.456;2023-02-28T12:00:54;100555.56;;;6.33;72.25
73821;BME280;62150;43.582;1.456;2023-02-28T12:03:32;100565.94;;;6.23;69.94
73821;BME280;62150;43.582;1.456;2023-02-28T12:06:15;100556.66;;;6.71;67.03
73821;BME280;62150;43.582;1.456;2023-02-28T12:08:52;100560.31;;;7.05;60.65
73821;BME280;62150;43.582;1.456;2023-02-28T12:11:39;100555.94;;;7.12;60.91
73821;BME280;62150;43.582;1.456;2023-02-28T12:14:25;100551.72;;;7.96;60.04
73821;BME280;62150;43.582;1.456;2023-02-28T12:17:12;100539.25;;;8.18;58.98
73821;BME280;62150;43.582;1.456;2023-02-28T12:19:46;100547.56;;;7.90;60.05
73821;BME280;62150;43.582;1.456;2023-02-28T12:22:27;100527.13;;;7.49;60.35
73821;BME280;62150;43.582;1.456;2023-02-28T12:27:49;100530.94;;;6.83;59.94
73821;BME280;62150;43.582;1.456;2023-02-28T12:30:22;100535.91;;;6.91;60.05
73821;BME280;62150;43.582;1.456;2023-02-28T12:32:55;100531.28;;;6.60;59.77
73821;BME280;62150;43.582;1.456;2023-02-28T12:35:28;100529.56;;;7.10;58.70
73821;BME280;62150;43.582;1.456;2023-02-28T12:38:04;100527.50;;;6.84;59.42
73821;BME280;62150;43.582;1.456;2023-02-28T12:40:41;100521.81;;;7.59;57.79
73821;BME280;62150;43.582;1.456;2023-02-28T12:43:13;100521.50;;;6.87;59.51
73821;BME280;62150;43.582;1.456;2023-02-28T12:45:45;100538.69;;;6.77;58.04
73821;BME280;62150;43.582;1.456;2023-02-28T12:48:20;100519.28;;;6.67;58.25
73821;BME280;62150;43.582;1.456;2023-02-28T12:50:49;100521.69;;;6.76;57.96
73821;BME280;62150;43.582;1.456;2023-02-28T12:53:25;100514.66;;;6.89;58.66
73821;BME280;62150;43.582;1.456;2023-02-28T12:56:06;100522.03;;;7.04;57.03
73821;BME280;62150;43.582;1.456;2023-02-28T12:58:39;100504.03;;;7.10;55.44
73821;BME280;62150;43.582;1.456;2023-02-28T13:01:35;100512.75;;;6.98;56.20
73821;BME280;62150;43.582;1.456;2023-02-28T13:07:29;100513.22;;;6.72;57.05
73821;BME280;62150;43.582;1.456;2023-02-28T13:10:02;100499.38;;;6.86;56.27
73821;BME280;62150;43.582;1.456;2023-02-28T13:12:33;100502.06;;;7.24;54.11
73821;BME280;62150;43.582;1.456;2023-02-28T13:15:07;100495.41;;;7.16;53.89
73821;BME280;62150;43.582;1.456;2023-02-28T13:17:39;100494.66;;;7.11;52.70
73821;BME280;62150;43.582;1.456;2023-02-28T13:20:17;100491.25;;;7.10;53.14
73821;BME280;62150;43.582;1.456;2023-02-28T13:22:48;100497.25;;;7.09;52.75
73821;BME280;62150;43.582;1.456;2023-02-28T13:28:58;100498.25;;;6.54;54.37
73821;BME280;62150;43.582;1.456;2023-02-28T13:31:26;100502.59;;;7.40;53.68
73821;BME280;62150;43.582;1.456;2023-02-28T13:34:13;100498.53;;;6.36;55.16
73821;BME280;62150;43.582;1.456;2023-02-28T13:36:41;100501.63;;;6.56;54.59
73821;BME280;62150;43.582;1.456;2023-02-28T13:39:48;100493.38;;;7.31;52.68
73821;BME280;62150;43.582;1.456;2023-02-28T13:42:35;100495.06;;;7.72;51.45
73821;BME280;62150;43.582;1.456;2023-02-28T13:45:24;100495.25;;;7.63;49.92
73821;BME280;62150;43.582;1.456;2023-02-28T13:47:58;100492.25;;;7.45;49.25
73821;BME280;62150;43.582;1.456;2023-02-28T13:50:33;100494.22;;;7.72;48.81
73821;BME280;62150;43.582;1.456;2023-02-28T13:56:19;100484.03;;;7.30;46.94
73821;BME280;62150;43.582;1.456;2023-02-28T13:58:54;100475.28;;;7.42;46.79
73821;BME280;62150;43.582;1.456;2023-02-28T14:01:48;100478.41;;;7.15;46.90
73821;BME280;62150;43.582;1.456;2023-02-28T14:07:19;100469.66;;;8.39;44.63
73821;BME280;62150;43.582;1.456;2023-02-28T14:09:56;100477.69;;;7.88;44.45
73821;BME280;62150;43.582;1.456;2023-02-28T14:13:01;100491.69;;;7.30;44.75
73821;BME280;62150;43.582;1.456;2023-02-28T14:15:45;100485.34;;;7.50;45.07
73821;BME280;62150;43.582;1.456;2023-02-28T14:18:23;100483.81;;;7.41;44.66
73821;BME280;62150;43.582;1.456;2023-02-28T14:23:55;100490.63;;;6.97;46.19
73821;BME280;62150;43.582;1.456;2023-02-28T14:26:37;100492.53;;;6.88;47.66
73821;BME280;62150;43.582;1.456;2023-02-28T14:29:36;100492.69;;;6.79;49.86
73821;BME280;62150;43.582;1.456;2023-02-28T14:32:15;100496.97;;;6.78;51.41
73821;BME280;62150;43.582;1.456;2023-02-28T14:34:52;100492.66;;;6.82;49.65
73821;BME280;62150;43.582;1.456;2023-02-28T14:37:27;100487.13;;;6.57;49.52
73821;BME280;62150;43.582;1.456;2023-02-28T14:39:56;100485.97;;;6.75;51.46
73821;BME280;62150;43.582;1.456;2023-02-28T14:42:33;100485.34;;;7.06;50.52
73821;BME280;62150;43.582;1.456;2023-02-28T14:45:05;100487.75;;;6.69;50.42
73821;BME280;62150;43.582;1.456;2023-02-28T14:47:35;100489.38;;;6.73;49.67
73821;BME280;62150;43.582;1.456;2023-02-28T14:50:04;100485.16;;;6.72;49.50
73821;BME280;62150;43.582;1.456;2023-02-28T14:52:33;100485.03;;;6.79;48.78
73821;BME280;62150;43.582;1.456;2023-02-28T14:55:03;100490.44;;;7.08;48.82
73821;BME280;62150;43.582;1.456;2023-02-28T14:57:34;100483.09;;;6.93;48.35
73821;BME280;62150;43.582;1.456;2023-02-28T15:00:11;100485.75;;;6.87;48.56
73821;BME280;62150;43.582;1.456;2023-02-28T15:02:41;100493.53;;;6.79;47.15
73821;BME280;62150;43.582;1.456;2023-02-28T15:05:27;100486.44;;;6.47;47.60
73821;BME280;62150;43.582;1.456;2023-02-28T15:08:05;100482.56;;;6.74;46.82
73821;BME280;62150;43.582;1.456;2023-02-28T15:10:34;100485.09;;;7.20;46.50
73821;BME280;62150;43.582;1.456;2023-02-28T15:13:05;100481.06;;;6.62;46.76
73821;BME280;62150;43.582;1.456;2023-02-28T15:15:47;100480.28;;;6.59;47.09
73821;BME280;62150;43.582;1.456;2023-02-28T15:18:30;100485.00;;;6.80;47.13
73821;BME280;62150;43.582;1.456;2023-02-28T15:21:01;100487.81;;;6.65;47.10
73821;BME280;62150;43.582;1.456;2023-02-28T15:23:30;100477.78;;;6.56;46.95
73821;BME280;62150;43.582;1.456;2023-02-28T15:25:59;100489.59;;;6.61;46.80
73821;BME280;62150;43.582;1.456;2023-02-28T15:28:27;100486.72;;;6.29;46.61
73821;BME280;62150;43.582;1.456;2023-02-28T15:31:00;100485.28;;;6.65;46.30
73821;BME280;62150;43.582;1.456;2023-02-28T15:33:28;100480.84;;;6.75;46.98
73821;BME280;62150;43.582;1.456;2023-02-28T15:36:14;100472.34;;;6.25;47.82
73821;BME280;62150;43.582;1.456;2023-02-28T15:38:44;100492.19;;;6.08;47.59
73821;BME280;62150;43.582;1.456;2023-02-28T15:41:26;100488.91;;;5.99;47.71
73821;BME280;62150;43.582;1.456;2023-02-28T15:44:13;100478.59;;;6.07;47.69
73821;BME280;62150;43.582;1.456;2023-02-28T15:46:45;100483.41;;;6.24;47.37
73821;BME280;62150;43.582;1.456;2023-02-28T15:49:21;100485.84;;;6.31;47.71
73821;BME280;62150;43.582;1.456;2023-02-28T15:51:50;100483.03;;;6.48;47.89
73821;BME280;62150;43.582;1.456;2023-02-28T15:54:21;100481.66;;;6.26;48.13
73821;BME280;62150;43.582;1.456;2023-02-28T15:56:52;100489.34;;;6.24;47.61
73821;BME280;62150;43.582;1.456;2023-02-28T15:59:23;100488.28;;;5.81;47.37
73821;BME280;62150;43.582;1.456;2023-02-28T16:02:15;100484.56;;;6.04;47.29
73821;BME280;62150;43.582;1.456;2023-02-28T16:04:58;100489.97;;;5.82;47.25
73821;BME280;62150;43.582;1.456;2023-02-28T16:07:29;100489.84;;;5.92;47.82
73821;BME280;62150;43.582;1.456;2023-02-28T16:09:57;100487.25;;;5.95;47.91
73821;BME280;62150;43.582;1.456;2023-02-28T16:12:27;100495.75;;;5.94;47.92
73821;BME280;62150;43.582;1.456;2023-02-28T16:14:57;100487.91;;;6.08;47.77
73821;BME280;62150;43.582;1.456;2023-02-28T16:17:28;100488.91;;;5.98;47.66
73821;BME280;62150;43.582;1.456;2023-02-28T16:19:56;100496.47;;;6.04;48.61
73821;BME280;62150;43.582;1.456;2023-02-28T16:22:24;100502.88;;;5.71;48.80
73821;BME280;62150;43.582;1.456;2023-02-28T16:24:52;100501.97;;;5.75;49.38
73821;BME280;62150;43.582;1.456;2023-02-28T16:27:25;100498.66;;;5.67;49.89
73821;BME280;62150;43.582;1.456;2023-02-28T16:29:55;100500.59;;;5.50;50.25
73821;BME280;62150;43.582;1.456;2023-02-28T16:32:22;100505.66;;;5.54;50.54
73821;BME280;62150;43.582;1.456;2023-02-28T16:34:51;100510.59;;;5.63;51.20
73821;BME280;62150;43.582;1.456;2023-02-28T16:37:19;100510.00;;;5.46;50.72
73821;BME280;62150;43.582;1.456;2023-02-28T16:39:46;100515.78;;;5.57;51.04
73821;BME280;62150;43.582;1.456;2023-02-28T16:42:20;100512.09;;;5.81;51.50
73821;BME280;62150;43.582;1.456;2023-02-28T16:44:49;100513.41;;;5.44;51.93
73821;BME280;62150;43.582;1.456;2023-02-28T16:47:16;100515.84;;;5.54;50.92
73821;BME280;62150;43.582;1.456;2023-02-28T16:49:44;100512.03;;;5.89;50.76
73821;BME280;62150;43.582;1.456;2023-02-28T16:52:15;100515.25;;;5.98;51.19
73821;BME280;62150;43.582;1.456;2023-02-28T16:54:42;100522.31;;;5.78;51.59
73821;BME280;62150;43.582;1.456;2023-02-28T16:57:18;100523.00;;;5.91;51.26
73821;BME280;62150;43.582;1.456;2023-02-28T16:59:48;100521.75;;;5.55;52.43
73821;BME280;62150;43.582;1.456;2023-02-28T17:02:18;100523.50;;;5.53;53.08
73821;BME280;62150;43.582;1.456;2023-02-28T17:04:46;100530.44;;;5.42;53.58
73821;BME280;62150;43.582;1.456;2023-02-28T17:07:16;100527.28;;;5.20;53.60
73821;BME280;62150;43.582;1.456;2023-02-28T17:09:44;100539.97;;;5.23;55.15
73821;BME280;62150;43.582;1.456;2023-02-28T17:12:11;100532.31;;;5.24;57.11
73821;BME280;62150;43.582;1.456;2023-02-28T17:14:40;100534.03;;;5.22;56.38
73821;BME280;62150;43.582;1.456;2023-02-28T17:17:09;100534.19;;;5.10;57.69
73821;BME280;62150;43.582;1.456;2023-02-28T17:19:37;100540.03;;;5.20;57.56
73821;BME280;62150;43.582;1.456;2023-02-28T17:22:09;100549.44;;;5.13;59.44
73821;BME280;62150;43.582;1.456;2023-02-28T17:24:38;100548.66;;;5.03;60.21
73821;BME280;62150;43.582;1.456;2023-02-28T17:27:08;100553.66;;;5.14;60.58
73821;BME280;62150;43.582;1.456;2023-02-28T17:29:36;100556.31;;;5.02;60.21
73821;BME280;62150;43.582;1.456;2023-02-28T17:32:04;100555.53;;;4.95;59.22
73821;BME280;62150;43.582;1.456;2023-02-28T17:34:31;100569.06;;;5.02;59.30
73821;BME280;62150;43.582;1.456;2023-02-28T17:36:59;100566.53;;;4.97;58.47
73821;BME280;62150;43.582;1.456;2023-02-28T17:39:26;100567.34;;;5.02;59.06
73821;BME280;62150;43.582;1.456;2023-02-28T17:41:56;100567.28;;;5.10;59.71
73821;BME280;62150;43.582;1.456;2023-02-28T17:44:24;100575.88;;;4.98;59.72
73821;BME280;62150;43.582;1.456;2023-02-28T17:46:53;100575.88;;;5.00;59.63
73821;BME280;62150;43.582;1.456;2023-02-28T17:49:21;100578.25;;;5.18;59.40
73821;BME280;62150;43.582;1.456;2023-02-28T17:51:49;100581.78;;;5.02;60.50
73821;BME280;62150;43.582;1.456;2023-02-28T17:54:17;100584.97;;;5.24;59.23
73821;BME280;62150;43.582;1.456;2023-02-28T17:56:45;100589.47;;;4.96;59.84
73821;BME280;62150;43.582;1.456;2023-02-28T17:59:14;100586.22;;;4.83;59.24
73821;BME280;62150;43.582;1.456;2023-02-28T18:01:41;100597.16;;;4.90;58.89
73821;BME280;62150;43.582;1.456;2023-02-28T18:04:09;100594.56;;;4.96;59.09
73821;BME280;62150;43.582;1.456;2023-02-28T18:06:37;100602.28;;;4.87;60.22
73821;BME280;62150;43.582;1.456;2023-02-28T18:09:12;100599.66;;;4.94;59.40
73821;BME280;62150;43.582;1.456;2023-02-28T18:11:40;100604.78;;;4.91;60.24
73821;BME280;62150;43.582;1.456;2023-02-28T18:14:15;100610.59;;;5.07;58.86
73821;BME280;62150;43.582;1.456;2023-02-28T18:16:44;100603.00;;;5.01;59.54
73821;BME280;62150;43.582;1.456;2023-02-28T18:19:12;100608.16;;;4.93;58.62
73821;BME280;62150;43.582;1.456;2023-02-28T18:21:43;100612.56;;;4.78;59.58
73821;BME280;62150;43.582;1.456;2023-02-28T18:24:11;100609.03;;;4.91;61.16
73821;BME280;62150;43.582;1.456;2023-02-28T18:26:39;100618.38;;;4.89;59.11
73821;BME280;62150;43.582;1.456;2023-02-28T18:29:08;100617.50;;;4.94;58.60
73821;BME280;62150;43.582;1.456;2023-02-28T18:31:37;100622.56;;;4.99;59.58
73821;BME280;62150;43.582;1.456;2023-02-28T18:34:04;100615.97;;;4.77;60.34
73821;BME280;62150;43.582;1.456;2023-02-28T18:36:32;100614.16;;;4.88;61.86
73821;BME280;62150;43.582;1.456;2023-02-28T18:38:59;100609.84;;;4.96;61.00
73821;BME280;62150;43.582;1.456;2023-02-28T18:41:27;100614.97;;;4.91;62.39
73821;BME280;62150;43.582;1.456;2023-02-28T18:43:55;100606.66;;;4.74;63.18
73821;BME280;62150;43.582;1.456;2023-02-28T18:46:22;100598.94;;;4.85;63.57
73821;BME280;62150;43.582;1.456;2023-02-28T18:48:51;100604.84;;;4.85;63.18
73821;BME280;62150;43.582;1.456;2023-02-28T18:51:21;100608.16;;;4.93;65.49
73821;BME280;62150;43.582;1.456;2023-02-28T18:53:49;100607.34;;;4.91;63.22
73821;BME280;62150;43.582;1.456;2023-02-28T18:56:19;100609.03;;;4.89;65.71
73821;BME280;62150;43.582;1.456;2023-02-28T18:58:48;100598.22;;;4.67;64.91
73821;BME280;62150;43.582;1.456;2023-02-28T19:01:18;100600.66;;;4.83;63.92
73821;BME280;62150;43.582;1.456;2023-02-28T19:03:46;100604.09;;;4.76;64.20
73821;BME280;62150;43.582;1.456;2023-02-28T19:06:16;100590.41;;;4.86;66.13
73821;BME280;62150;43.582;1.456;2023-02-28T19:08:44;100591.25;;;4.86;64.79
73821;BME280;62150;43.582;1.456;2023-02-28T19:11:14;100601.50;;;4.82;64.98
73821;BME280;62150;43.582;1.456;2023-02-28T19:13:42;100602.41;;;4.71;65.50
73821;BME280;62150;43.582;1.456;2023-02-28T19:16:11;100597.34;;;4.68;65.71
73821;BME280;62150;43.582;1.456;2023-02-28T19:18:39;100604.06;;;4.79;66.38
73821;BME280;62150;43.582;1.456;2023-02-28T19:21:07;100588.06;;;4.61;67.89
73821;BME280;62150;43.582;1.456;2023-02-28T19:23:37;100599.03;;;4.72;66.00
73821;BME280;62150;43.582;1.456;2023-02-28T19:26:06;100606.69;;;4.66;67.13
73821;BME280;62150;43.582;1.456;2023-02-28T19:28:33;100600.81;;;4.58;67.56
73821;BME280;62150;43.582;1.456;2023-02-28T19:31:01;100590.59;;;4.64;67.43
73821;BME280;62150;43.582;1.456;2023-02-28T19:33:29;100585.38;;;4.83;68.72
73821;BME280;62150;43.582;1.456;2023-02-28T19:35:59;100581.00;;;4.92;67.35
73821;BME280;62150;43.582;1.456;2023-02-28T19:38:27;100584.56;;;4.79;69.89
73821;BME280;62150;43.582;1.456;2023-02-28T19:41:01;100588.06;;;4.63;68.80
73821;BME280;62150;43.582;1.456;2023-02-28T19:43:29;100581.31;;;4.59;68.35
73821;BME280;62150;43.582;1.456;2023-02-28T19:45:56;100584.78;;;4.49;69.61
73821;BME280;62150;43.582;1.456;2023-02-28T19:48:29;100584.53;;;4.81;68.50
73821;BME280;62150;43.582;1.456;2023-02-28T19:50:57;100583.00;;;4.57;71.07
73821;BME280;62150;43.582;1.456;2023-02-28T19:53:25;100584.56;;;4.76;71.11